Horton, Michigan
Current Conditions -  °F | °C
As of 2:56 PM on Thursday 30 Oct 2014 (Local Time) from KJXN Reporting Station
Overcast Overcast  
Wind Chill: 46°   Ceiling: 4300
Heat Index: 48°   Visibility: 10mi
Dew Point: 35°   Wind: 5mph
Humidity: 61%   Direction: 250°WSW
Pressure: 30.07"   Gusts: NA
Location:  42.15°N, 84.52°W
Report Text: KJXN 301856Z 25004KT 10SM SCT031 OVC043 09/02 A3007 RMK AO2 SLP190 T00890017
Loading
Personal Weather Stations






























Interactive Weather Map New forecast layout! Learn more

10-Day Weather Forecast

Advertisements
Track Severe Weather on mobile